sensor_id;sensor_type;location;lat;lon;timestamp;temperature;humidity
69543;SHT31;56762;49.494;11.768;2023-04-06T00:01:57;-0.32;77.28
69543;SHT31;56762;49.494;11.768;2023-04-06T00:04:26;-0.32;76.89
69543;SHT31;56762;49.494;11.768;2023-04-06T00:06:54;-0.35;77.86
69543;SHT31;56762;49.494;11.768;2023-04-06T00:09:22;-0.36;77.15
69543;SHT31;56762;49.494;11.768;2023-04-06T00:11:51;-0.35;77.45
69543;SHT31;56762;49.494;11.768;2023-04-06T00:14:19;-0.46;77.12
69543;SHT31;56762;49.494;11.768;2023-04-06T00:16:47;-0.44;76.46
69543;SHT31;56762;49.494;11.768;2023-04-06T00:19:14;-0.44;77.34
69543;SHT31;56762;49.494;11.768;2023-04-06T00:21:43;-0.52;77.67
69543;SHT31;56762;49.494;11.768;2023-04-06T00:24:12;-0.62;77.97
69543;SHT31;56762;49.494;11.768;2023-04-06T00:26:39;-0.65;78.18
69543;SHT31;56762;49.494;11.768;2023-04-06T00:29:07;-0.63;78.92
69543;SHT31;56762;49.494;11.768;2023-04-06T00:31:36;-0.61;77.71
69543;SHT31;56762;49.494;11.768;2023-04-06T00:34:04;-0.53;77.76
69543;SHT31;56762;49.494;11.768;2023-04-06T00:36:32;-0.68;78.09
69543;SHT31;56762;49.494;11.768;2023-04-06T00:39:01;-0.70;79.25
69543;SHT31;56762;49.494;11.768;2023-04-06T00:41:29;-0.63;77.79
69543;SHT31;56762;49.494;11.768;2023-04-06T00:43:56;-0.72;78.63
69543;SHT31;56762;49.494;11.768;2023-04-06T00:46:24;-0.68;78.37
69543;SHT31;56762;49.494;11.768;2023-04-06T00:48:52;-0.66;78.60
69543;SHT31;56762;49.494;11.768;2023-04-06T00:51:20;-0.66;78.93
69543;SHT31;56762;49.494;11.768;2023-04-06T00:53:48;-0.58;78.38
69543;SHT31;56762;49.494;11.768;2023-04-06T00:56:17;-0.56;78.29
69543;SHT31;56762;49.494;11.768;2023-04-06T00:58:45;-0.44;78.21
69543;SHT31;56762;49.494;11.768;2023-04-06T01:01:13;-0.41;77.81
69543;SHT31;56762;49.494;11.768;2023-04-06T01:03:41;-0.35;77.94
69543;SHT31;56762;49.494;11.768;2023-04-06T01:06:10;-0.22;77.37
69543;SHT31;56762;49.494;11.768;2023-04-06T01:08:38;-0.21;77.32
69543;SHT31;56762;49.494;11.768;2023-04-06T01:11:06;-0.18;77.10
69543;SHT31;56762;49.494;11.768;2023-04-06T01:13:36;-0.15;76.54
69543;SHT31;56762;49.494;11.768;2023-04-06T01:16:04;-0.11;76.89
69543;SHT31;56762;49.494;11.768;2023-04-06T01:18:33;-0.13;76.28
69543;SHT31;56762;49.494;11.768;2023-04-06T01:21:01;-0.17;77.26
69543;SHT31;56762;49.494;11.768;2023-04-06T01:23:31;-0.17;77.27
69543;SHT31;56762;49.494;11.768;2023-04-06T01:25:58;-0.11;76.72
69543;SHT31;56762;49.494;11.768;2023-04-06T01:28:26;-0.10;76.37
69543;SHT31;56762;49.494;11.768;2023-04-06T01:30:54;-0.01;76.35
69543;SHT31;56762;49.494;11.768;2023-04-06T01:33:22;0.02;75.62
69543;SHT31;56762;49.494;11.768;2023-04-06T01:35:50;0.06;76.35
69543;SHT31;56762;49.494;11.768;2023-04-06T01:38:18;0.11;77.43
69543;SHT31;56762;49.494;11.768;2023-04-06T01:40:47;0.13;76.94
69543;SHT31;56762;49.494;11.768;2023-04-06T01:43:15;0.23;76.99
69543;SHT31;56762;49.494;11.768;2023-04-06T01:45:42;0.21;75.79
69543;SHT31;56762;49.494;11.768;2023-04-06T01:48:11;0.26;74.58
69543;SHT31;56762;49.494;11.768;2023-04-06T01:50:39;0.21;76.19
69543;SHT31;56762;49.494;11.768;2023-04-06T01:53:06;0.21;76.16
69543;SHT31;56762;49.494;11.768;2023-04-06T01:55:34;0.21;76.26
69543;SHT31;56762;49.494;11.768;2023-04-06T01:58:03;0.23;76.81
69543;SHT31;56762;49.494;11.768;2023-04-06T02:00:31;0.27;76.57
69543;SHT31;56762;49.494;11.768;2023-04-06T02:02:59;0.30;76.82
69543;SHT31;56762;49.494;11.768;2023-04-06T02:05:28;0.26;76.99
69543;SHT31;56762;49.494;11.768;2023-04-06T02:07:56;0.31;76.14
69543;SHT31;56762;49.494;11.768;2023-04-06T02:10:24;0.36;76.71
69543;SHT31;56762;49.494;11.768;2023-04-06T02:12:52;0.36;76.65
69543;SHT31;56762;49.494;11.768;2023-04-06T02:15:21;0.31;76.68
69543;SHT31;56762;49.494;11.768;2023-04-06T02:17:49;0.30;77.09
69543;SHT31;56762;49.494;11.768;2023-04-06T02:20:17;0.33;76.92
69543;SHT31;56762;49.494;11.768;2023-04-06T02:22:45;0.33;76.25
69543;SHT31;56762;49.494;11.768;2023-04-06T02:25:13;0.31;76.05
69543;SHT31;56762;49.494;11.768;2023-04-06T02:27:41;0.30;76.14
69543;SHT31;56762;49.494;11.768;2023-04-06T02:30:09;0.30;75.90
69543;SHT31;56762;49.494;11.768;2023-04-06T02:32:39;0.24;77.00
69543;SHT31;56762;49.494;11.768;2023-04-06T02:35:08;0.23;77.78
69543;SHT31;56762;49.494;11.768;2023-04-06T02:37:36;0.23;77.96
69543;SHT31;56762;49.494;11.768;2023-04-06T02:40:04;0.26;77.53
69543;SHT31;56762;49.494;11.768;2023-04-06T02:42:33;0.28;77.29
69543;SHT31;56762;49.494;11.768;2023-04-06T02:45:02;0.24;77.34
69543;SHT31;56762;49.494;11.768;2023-04-06T02:47:30;0.23;77.37
69543;SHT31;56762;49.494;11.768;2023-04-06T02:49:59;0.18;76.77
69543;SHT31;56762;49.494;11.768;2023-04-06T02:52:27;0.18;76.49
69543;SHT31;56762;49.494;11.768;2023-04-06T02:54:54;0.10;76.87
69543;SHT31;56762;49.494;11.768;2023-04-06T02:57:23;0.07;77.37
69543;SHT31;56762;49.494;11.768;2023-04-06T02:59:50;0.06;77.90
69543;SHT31;56762;49.494;11.768;2023-04-06T03:02:18;0.03;78.39
69543;SHT31;56762;49.494;11.768;2023-04-06T03:04:46;0.00;78.47
69543;SHT31;56762;49.494;11.768;2023-04-06T03:07:16;0.00;77.60
69543;SHT31;56762;49.494;11.768;2023-04-06T03:09:43;-0.01;77.64
69543;SHT31;56762;49.494;11.768;2023-04-06T03:12:11;-0.01;78.41
69543;SHT31;56762;49.494;11.768;2023-04-06T03:14:39;-0.04;77.90
69543;SHT31;56762;49.494;11.768;2023-04-06T03:17:07;-0.08;78.00
69543;SHT31;56762;49.494;11.768;2023-04-06T03:19:35;-0.11;77.90
69543;SHT31;56762;49.494;11.768;2023-04-06T03:22:03;-0.11;78.15
69543;SHT31;56762;49.494;11.768;2023-04-06T03:24:32;-0.15;78.51
69543;SHT31;56762;49.494;11.768;2023-04-06T03:27:00;-0.15;78.08
69543;SHT31;56762;49.494;11.768;2023-04-06T03:29:28;-0.15;77.56
69543;SHT31;56762;49.494;11.768;2023-04-06T03:31:56;-0.19;77.80
69543;SHT31;56762;49.494;11.768;2023-04-06T03:34:24;-0.17;77.79
69543;SHT31;56762;49.494;11.768;2023-04-06T03:36:52;-0.22;78.93
69543;SHT31;56762;49.494;11.768;2023-04-06T03:39:36;-0.18;78.78
69543;SHT31;56762;49.494;11.768;2023-04-06T03:42:04;-0.17;78.28
69543;SHT31;56762;49.494;11.768;2023-04-06T03:44:32;-0.17;78.01
69543;SHT31;56762;49.494;11.768;2023-04-06T03:47:00;-0.17;78.42
69543;SHT31;56762;49.494;11.768;2023-04-06T03:49:28;-0.21;78.42
69543;SHT31;56762;49.494;11.768;2023-04-06T03:51:56;-0.17;78.29
69543;SHT31;56762;49.494;11.768;2023-04-06T03:54:24;-0.17;78.32
69543;SHT31;56762;49.494;11.768;2023-04-06T03:56:54;-0.18;78.50
69543;SHT31;56762;49.494;11.768;2023-04-06T03:59:22;-0.14;79.14
69543;SHT31;56762;49.494;11.768;2023-04-06T04:01:50;-0.11;77.17
69543;SHT31;56762;49.494;11.768;2023-04-06T04:04:18;-0.11;77.34
69543;SHT31;56762;49.494;11.768;2023-04-06T04:06:46;-0.14;77.09
69543;SHT31;56762;49.494;11.768;2023-04-06T04:09:14;-0.14;78.13
69543;SHT31;56762;49.494;11.768;2023-04-06T04:11:42;-0.18;77.71
69543;SHT31;56762;49.494;11.768;2023-04-06T04:14:11;-0.21;78.22
69543;SHT31;56762;49.494;11.768;2023-04-06T04:16:39;-0.22;77.97
69543;SHT31;56762;49.494;11.768;2023-04-06T04:19:08;-0.25;78.57
69543;SHT31;56762;49.494;11.768;2023-04-06T04:21:43;-0.29;78.96
69543;SHT31;56762;49.494;11.768;2023-04-06T04:24:12;-0.29;79.67
69543;SHT31;56762;49.494;11.768;2023-04-06T04:26:40;-0.32;80.01
69543;SHT31;56762;49.494;11.768;2023-04-06T04:29:08;-0.41;79.88
69543;SHT31;56762;49.494;11.768;2023-04-06T04:31:37;-0.48;79.80
69543;SHT31;56762;49.494;11.768;2023-04-06T04:34:05;-0.55;80.84
69543;SHT31;56762;49.494;11.768;2023-04-06T04:36:34;-0.62;81.33
69543;SHT31;56762;49.494;11.768;2023-04-06T04:39:02;-0.63;81.88
69543;SHT31;56762;49.494;11.768;2023-04-06T04:41:30;-0.62;81.15
69543;SHT31;56762;49.494;11.768;2023-04-06T04:43:57;-0.63;80.63
69543;SHT31;56762;49.494;11.768;2023-04-06T04:46:25;-0.72;81.12
69543;SHT31;56762;49.494;11.768;2023-04-06T04:48:55;-0.73;82.03
69543;SHT31;56762;49.494;11.768;2023-04-06T04:51:23;-0.79;81.32
69543;SHT31;56762;49.494;11.768;2023-04-06T04:53:51;-0.73;80.69
69543;SHT31;56762;49.494;11.768;2023-04-06T04:56:19;-0.72;80.56
69543;SHT31;56762;49.494;11.768;2023-04-06T04:58:47;-0.82;80.99
69543;SHT31;56762;49.494;11.768;2023-04-06T05:01:15;-0.77;80.54
69543;SHT31;56762;49.494;11.768;2023-04-06T05:03:43;-0.80;81.15
69543;SHT31;56762;49.494;11.768;2023-04-06T05:06:12;-0.77;79.70
69543;SHT31;56762;49.494;11.768;2023-04-06T05:08:41;-0.75;79.81
69543;SHT31;56762;49.494;11.768;2023-04-06T05:11:09;-0.79;79.35
69543;SHT31;56762;49.494;11.768;2023-04-06T05:13:37;-0.73;79.69
69543;SHT31;56762;49.494;11.768;2023-04-06T05:16:05;-0.70;79.77
69543;SHT31;56762;49.494;11.768;2023-04-06T05:18:33;-0.66;80.08
69543;SHT31;56762;49.494;11.768;2023-04-06T05:21:01;-0.61;79.24
69543;SHT31;56762;49.494;11.768;2023-04-06T05:23:31;-0.55;80.15
69543;SHT31;56762;49.494;11.768;2023-04-06T05:25:59;-0.51;79.42
69543;SHT31;56762;49.494;11.768;2023-04-06T05:28:27;-0.39;78.78
69543;SHT31;56762;49.494;11.768;2023-04-06T05:30:54;-0.34;78.65
69543;SHT31;56762;49.494;11.768;2023-04-06T05:33:24;-0.24;78.31
69543;SHT31;56762;49.494;11.768;2023-04-06T05:35:52;-0.17;77.96
69543;SHT31;56762;49.494;11.768;2023-04-06T05:38:20;-0.14;78.54
69543;SHT31;56762;49.494;11.768;2023-04-06T05:40:50;-0.03;77.86
69543;SHT31;56762;49.494;11.768;2023-04-06T05:43:17;0.02;77.47
69543;SHT31;56762;49.494;11.768;2023-04-06T05:45:48;0.11;77.47
69543;SHT31;56762;49.494;11.768;2023-04-06T05:48:16;0.18;76.38
69543;SHT31;56762;49.494;11.768;2023-04-06T05:50:47;0.27;76.69
69543;SHT31;56762;49.494;11.768;2023-04-06T05:53:16;0.37;77.14
69543;SHT31;56762;49.494;11.768;2023-04-06T05:55:43;0.41;77.45
69543;SHT31;56762;49.494;11.768;2023-04-06T05:58:13;0.48;76.42
69543;SHT31;56762;49.494;11.768;2023-04-06T06:00:41;0.57;76.57
69543;SHT31;56762;49.494;11.768;2023-04-06T06:03:09;0.61;76.60
69543;SHT31;56762;49.494;11.768;2023-04-06T06:05:37;0.68;75.49
69543;SHT31;56762;49.494;11.768;2023-04-06T06:08:05;0.75;75.54
69543;SHT31;56762;49.494;11.768;2023-04-06T06:10:33;0.87;75.59
69543;SHT31;56762;49.494;11.768;2023-04-06T06:13:01;0.92;73.51
69543;SHT31;56762;49.494;11.768;2023-04-06T06:15:30;1.02;73.87
69543;SHT31;56762;49.494;11.768;2023-04-06T06:17:58;1.10;75.05
69543;SHT31;56762;49.494;11.768;2023-04-06T06:20:25;1.19;74.03
69543;SHT31;56762;49.494;11.768;2023-04-06T06:22:53;1.19;73.78
69543;SHT31;56762;49.494;11.768;2023-04-06T06:25:22;1.28;73.32
69543;SHT31;56762;49.494;11.768;2023-04-06T06:27:50;1.36;73.17
69543;SHT31;56762;49.494;11.768;2023-04-06T06:30:18;1.49;72.94
69543;SHT31;56762;49.494;11.768;2023-04-06T06:32:50;1.60;72.56
69543;SHT31;56762;49.494;11.768;2023-04-06T06:35:18;1.66;71.64
69543;SHT31;56762;49.494;11.768;2023-04-06T06:37:46;1.75;70.25
69543;SHT31;56762;49.494;11.768;2023-04-06T06:40:14;1.82;70.83
69543;SHT31;56762;49.494;11.768;2023-04-06T06:42:44;1.87;69.71
69543;SHT31;56762;49.494;11.768;2023-04-06T06:45:12;1.95;70.50
69543;SHT31;56762;49.494;11.768;2023-04-06T06:47:39;2.01;70.25
69543;SHT31;56762;49.494;11.768;2023-04-06T06:50:09;2.07;69.83
69543;SHT31;56762;49.494;11.768;2023-04-06T06:52:37;2.12;70.14
69543;SHT31;56762;49.494;11.768;2023-04-06T06:55:06;2.21;69.82
69543;SHT31;56762;49.494;11.768;2023-04-06T06:57:33;2.30;69.85
69543;SHT31;56762;49.494;11.768;2023-04-06T07:00:02;2.36;69.07
69543;SHT31;56762;49.494;11.768;2023-04-06T07:02:30;2.43;69.13
69543;SHT31;56762;49.494;11.768;2023-04-06T07:04:58;2.52;69.36
69543;SHT31;56762;49.494;11.768;2023-04-06T07:07:27;2.59;68.59
69543;SHT31;56762;49.494;11.768;2023-04-06T07:09:55;2.61;67.20
69543;SHT31;56762;49.494;11.768;2023-04-06T07:12:23;2.72;67.27
69543;SHT31;56762;49.494;11.768;2023-04-06T07:14:51;2.79;66.52
69543;SHT31;56762;49.494;11.768;2023-04-06T07:17:18;2.90;66.28
69543;SHT31;56762;49.494;11.768;2023-04-06T07:19:46;2.99;66.67
69543;SHT31;56762;49.494;11.768;2023-04-06T07:22:14;3.10;67.04
69543;SHT31;56762;49.494;11.768;2023-04-06T07:24:43;3.17;65.71
69543;SHT31;56762;49.494;11.768;2023-04-06T07:27:11;3.22;65.40
69543;SHT31;56762;49.494;11.768;2023-04-06T07:29:38;3.31;64.73
69543;SHT31;56762;49.494;11.768;2023-04-06T07:32:07;3.38;64.22
69543;SHT31;56762;49.494;11.768;2023-04-06T07:34:34;3.39;64.88
69543;SHT31;56762;49.494;11.768;2023-04-06T07:37:02;3.43;64.58
69543;SHT31;56762;49.494;11.768;2023-04-06T07:39:30;3.42;63.63
69543;SHT31;56762;49.494;11.768;2023-04-06T07:41:59;3.48;63.69
69543;SHT31;56762;49.494;11.768;2023-04-06T07:44:27;3.51;63.23
69543;SHT31;56762;49.494;11.768;2023-04-06T07:46:56;3.56;63.32
69543;SHT31;56762;49.494;11.768;2023-04-06T07:49:23;3.59;62.95
69543;SHT31;56762;49.494;11.768;2023-04-06T07:51:52;3.58;63.06
69543;SHT31;56762;49.494;11.768;2023-04-06T07:54:19;3.73;65.68
69543;SHT31;56762;49.494;11.768;2023-04-06T07:56:47;3.89;64.16
69543;SHT31;56762;49.494;11.768;2023-04-06T07:59:16;3.96;64.90
69543;SHT31;56762;49.494;11.768;2023-04-06T08:01:44;4.06;63.02
69543;SHT31;56762;49.494;11.768;2023-04-06T08:04:12;4.13;62.31
69543;SHT31;56762;49.494;11.768;2023-04-06T08:06:40;4.14;62.76
69543;SHT31;56762;49.494;11.768;2023-04-06T08:09:08;4.20;62.69
69543;SHT31;56762;49.494;11.768;2023-04-06T08:11:36;4.21;61.43
69543;SHT31;56762;49.494;11.768;2023-04-06T08:14:04;4.20;61.40
69543;SHT31;56762;49.494;11.768;2023-04-06T08:16:33;4.27;60.63
69543;SHT31;56762;49.494;11.768;2023-04-06T08:19:01;4.40;63.65
69543;SHT31;56762;49.494;11.768;2023-04-06T08:21:28;4.48;61.47
69543;SHT31;56762;49.494;11.768;2023-04-06T08:23:57;4.52;60.83
69543;SHT31;56762;49.494;11.768;2023-04-06T08:26:25;4.55;60.55
69543;SHT31;56762;49.494;11.768;2023-04-06T08:28:53;4.61;60.49
69543;SHT31;56762;49.494;11.768;2023-04-06T08:31:21;4.65;59.31
69543;SHT31;56762;49.494;11.768;2023-04-06T08:33:51;4.65;59.95
69543;SHT31;56762;49.494;11.768;2023-04-06T08:36:19;4.71;59.61
69543;SHT31;56762;49.494;11.768;2023-04-06T08:38:49;4.81;61.08
69543;SHT31;56762;49.494;11.768;2023-04-06T08:41:18;4.86;59.41
69543;SHT31;56762;49.494;11.768;2023-04-06T08:43:47;4.95;59.02
69543;SHT31;56762;49.494;11.768;2023-04-06T08:46:15;4.99;60.00
69543;SHT31;56762;49.494;11.768;2023-04-06T08:48:43;5.11;59.12
69543;SHT31;56762;49.494;11.768;2023-04-06T08:51:13;5.19;59.07
69543;SHT31;56762;49.494;11.768;2023-04-06T08:53:41;5.22;57.31
69543;SHT31;56762;49.494;11.768;2023-04-06T08:56:10;5.24;57.71
69543;SHT31;56762;49.494;11.768;2023-04-06T08:58:39;5.33;57.24
69543;SHT31;56762;49.494;11.768;2023-04-06T09:01:10;5.39;59.86
69543;SHT31;56762;49.494;11.768;2023-04-06T09:03:40;5.53;55.46
69543;SHT31;56762;49.494;11.768;2023-04-06T09:06:09;5.54;56.95
69543;SHT31;56762;49.494;11.768;2023-04-06T09:08:40;5.68;57.42
69543;SHT31;56762;49.494;11.768;2023-04-06T09:11:10;5.70;56.13
69543;SHT31;56762;49.494;11.768;2023-04-06T09:13:45;5.77;55.76
69543;SHT31;56762;49.494;11.768;2023-04-06T09:16:15;5.82;56.84
69543;SHT31;56762;49.494;11.768;2023-04-06T09:18:43;5.87;55.67
69543;SHT31;56762;49.494;11.768;2023-04-06T09:21:11;6.04;55.88
69543;SHT31;56762;49.494;11.768;2023-04-06T09:23:41;6.12;55.59
69543;SHT31;56762;49.494;11.768;2023-04-06T09:26:10;6.26;54.31
69543;SHT31;56762;49.494;11.768;2023-04-06T09:28:46;6.36;54.64
69543;SHT31;56762;49.494;11.768;2023-04-06T09:31:16;6.35;54.27
69543;SHT31;56762;49.494;11.768;2023-04-06T09:33:45;6.49;54.52
69543;SHT31;56762;49.494;11.768;2023-04-06T09:36:14;6.57;52.90
69543;SHT31;56762;49.494;11.768;2023-04-06T09:38:59;6.63;51.70
69543;SHT31;56762;49.494;11.768;2023-04-06T09:41:29;6.73;52.36
69543;SHT31;56762;49.494;11.768;2023-04-06T09:44:05;6.84;52.07
69543;SHT31;56762;49.494;11.768;2023-04-06T09:46:35;6.97;48.89
69543;SHT31;56762;49.494;11.768;2023-04-06T09:49:24;7.15;51.34
69543;SHT31;56762;49.494;11.768;2023-04-06T09:51:57;7.12;47.31
69543;SHT31;56762;49.494;11.768;2023-04-06T09:54:29;7.15;47.88
69543;SHT31;56762;49.494;11.768;2023-04-06T09:57:02;7.16;48.19
69543;SHT31;56762;49.494;11.768;2023-04-06T09:59:38;7.18;45.55
69543;SHT31;56762;49.494;11.768;2023-04-06T10:02:15;7.22;45.98
69543;SHT31;56762;49.494;11.768;2023-04-06T10:04:49;7.31;46.24
69543;SHT31;56762;49.494;11.768;2023-04-06T10:07:18;7.41;47.91
69543;SHT31;56762;49.494;11.768;2023-04-06T10:09:49;7.52;46.04
69543;SHT31;56762;49.494;11.768;2023-04-06T10:12:17;7.58;44.90
69543;SHT31;56762;49.494;11.768;2023-04-06T10:14:46;7.62;45.44
69543;SHT31;56762;49.494;11.768;2023-04-06T10:17:14;7.63;45.85
69543;SHT31;56762;49.494;11.768;2023-04-06T10:19:55;7.58;46.47
69543;SHT31;56762;49.494;11.768;2023-04-06T10:22:29;7.52;45.62
69543;SHT31;56762;49.494;11.768;2023-04-06T10:25:02;7.48;47.45
69543;SHT31;56762;49.494;11.768;2023-04-06T10:27:30;7.51;47.59
69543;SHT31;56762;49.494;11.768;2023-04-06T10:30:03;7.54;45.85
69543;SHT31;56762;49.494;11.768;2023-04-06T10:32:33;7.63;45.71
69543;SHT31;56762;49.494;11.768;2023-04-06T10:35:09;7.73;45.55
69543;SHT31;56762;49.494;11.768;2023-04-06T10:37:51;7.85;46.38
69543;SHT31;56762;49.494;11.768;2023-04-06T10:40:22;7.91;46.29
69543;SHT31;56762;49.494;11.768;2023-04-06T10:42:52;8.00;45.23
69543;SHT31;56762;49.494;11.768;2023-04-06T10:45:23;8.27;48.04
69543;SHT31;56762;49.494;11.768;2023-04-06T10:47:53;8.49;46.18
69543;SHT31;56762;49.494;11.768;2023-04-06T10:50:22;8.65;45.79
69543;SHT31;56762;49.494;11.768;2023-04-06T10:52:58;8.78;44.06
69543;SHT31;56762;49.494;11.768;2023-04-06T10:55:29;8.83;44.01
69543;SHT31;56762;49.494;11.768;2023-04-06T10:57:57;8.82;43.55
69543;SHT31;56762;49.494;11.768;2023-04-06T11:00:25;8.73;41.23
69543;SHT31;56762;49.494;11.768;2023-04-06T11:03:14;8.78;42.78
69543;SHT31;56762;49.494;11.768;2023-04-06T11:05:43;8.85;44.34
69543;SHT31;56762;49.494;11.768;2023-04-06T11:08:22;8.92;44.88
69543;SHT31;56762;49.494;11.768;2023-04-06T11:10:51;9.02;42.35
69543;SHT31;56762;49.494;11.768;2023-04-06T11:13:20;9.15;41.61
69543;SHT31;56762;49.494;11.768;2023-04-06T11:15:48;9.19;40.54
69543;SHT31;56762;49.494;11.768;2023-04-06T11:18:17;9.16;40.89
69543;SHT31;56762;49.494;11.768;2023-04-06T11:20:49;9.19;41.34
69543;SHT31;56762;49.494;11.768;2023-04-06T11:23:24;9.33;42.54
69543;SHT31;56762;49.494;11.768;2023-04-06T11:25:54;9.51;42.73
69543;SHT31;56762;49.494;11.768;2023-04-06T11:28:23;9.65;40.84
69543;SHT31;56762;49.494;11.768;2023-04-06T11:30:52;9.70;42.34
69543;SHT31;56762;49.494;11.768;2023-04-06T11:33:21;9.68;38.66
69543;SHT31;56762;49.494;11.768;2023-04-06T11:35:51;9.70;41.28
69543;SHT31;56762;49.494;11.768;2023-04-06T11:38:19;9.70;38.56
69543;SHT31;56762;49.494;11.768;2023-04-06T11:40:52;9.67;38.35
69543;SHT31;56762;49.494;11.768;2023-04-06T11:43:27;9.65;39.95
69543;SHT31;56762;49.494;11.768;2023-04-06T11:46:03;9.75;40.30
69543;SHT31;56762;49.494;11.768;2023-04-06T11:48:44;9.78;41.29
69543;SHT31;56762;49.494;11.768;2023-04-06T11:51:12;9.77;40.19
69543;SHT31;56762;49.494;11.768;2023-04-06T11:53:49;9.75;42.03
69543;SHT31;56762;49.494;11.768;2023-04-06T11:56:27;9.82;39.88
69543;SHT31;56762;49.494;11.768;2023-04-06T11:59:00;9.82;40.35
69543;SHT31;56762;49.494;11.768;2023-04-06T12:01:28;9.78;38.86
69543;SHT31;56762;49.494;11.768;2023-04-06T12:04:03;9.61;37.85
69543;SHT31;56762;49.494;11.768;2023-04-06T12:06:31;9.51;37.52
69543;SHT31;56762;49.494;11.768;2023-04-06T12:08:59;9.44;38.17
69543;SHT31;56762;49.494;11.768;2023-04-06T12:11:27;9.43;38.96
69543;SHT31;56762;49.494;11.768;2023-04-06T12:13:56;9.50;40.44
69543;SHT31;56762;49.494;11.768;2023-04-06T12:16:26;9.41;38.39
69543;SHT31;56762;49.494;11.768;2023-04-06T12:18:54;9.44;41.07
69543;SHT31;56762;49.494;11.768;2023-04-06T12:21:22;9.38;39.27
69543;SHT31;56762;49.494;11.768;2023-04-06T12:23:50;9.33;38.46
69543;SHT31;56762;49.494;11.768;2023-04-06T12:26:19;9.30;40.03
69543;SHT31;56762;49.494;11.768;2023-04-06T12:28:48;9.22;38.21
69543;SHT31;56762;49.494;11.768;2023-04-06T12:31:18;9.19;39.25
69543;SHT31;56762;49.494;11.768;2023-04-06T12:33:47;9.23;37.84
69543;SHT31;56762;49.494;11.768;2023-04-06T12:36:16;9.24;38.24
69543;SHT31;56762;49.494;11.768;2023-04-06T12:38:47;9.26;38.56
69543;SHT31;56762;49.494;11.768;2023-04-06T12:41:16;9.19;37.96
69543;SHT31;56762;49.494;11.768;2023-04-06T12:43:44;9.17;37.99
69543;SHT31;56762;49.494;11.768;2023-04-06T12:46:12;9.09;37.30
69543;SHT31;56762;49.494;11.768;2023-04-06T12:48:41;8.92;38.47
69543;SHT31;56762;49.494;11.768;2023-04-06T12:51:09;8.95;38.78
69543;SHT31;56762;49.494;11.768;2023-04-06T12:53:37;8.96;38.32
69543;SHT31;56762;49.494;11.768;2023-04-06T12:56:12;9.02;38.53
69543;SHT31;56762;49.494;11.768;2023-04-06T12:58:40;8.97;37.88
69543;SHT31;56762;49.494;11.768;2023-04-06T13:01:09;8.92;37.28
69543;SHT31;56762;49.494;11.768;2023-04-06T13:03:38;8.90;38.20
69543;SHT31;56762;49.494;11.768;2023-04-06T13:06:07;8.89;38.09
69543;SHT31;56762;49.494;11.768;2023-04-06T13:08:36;8.87;38.61
69543;SHT31;56762;49.494;11.768;2023-04-06T13:11:05;8.86;39.14
69543;SHT31;56762;49.494;11.768;2023-04-06T13:13:36;8.86;39.56
69543;SHT31;56762;49.494;11.768;2023-04-06T13:16:07;8.92;38.13
69543;SHT31;56762;49.494;11.768;2023-04-06T13:18:38;9.03;38.46
69543;SHT31;56762;49.494;11.768;2023-04-06T13:21:08;9.27;39.14
69543;SHT31;56762;49.494;11.768;2023-04-06T13:23:36;9.48;39.98
69543;SHT31;56762;49.494;11.768;2023-04-06T13:26:06;9.57;40.06
69543;SHT31;56762;49.494;11.768;2023-04-06T13:28:35;9.64;38.83
69543;SHT31;56762;49.494;11.768;2023-04-06T13:31:07;9.75;38.81
69543;SHT31;56762;49.494;11.768;2023-04-06T13:33:37;9.78;37.82
69543;SHT31;56762;49.494;11.768;2023-04-06T13:36:09;9.74;38.25
69543;SHT31;56762;49.494;11.768;2023-04-06T13:38:37;9.78;37.91
69543;SHT31;56762;49.494;11.768;2023-04-06T13:41:07;9.78;36.00
69543;SHT31;56762;49.494;11.768;2023-04-06T13:43:35;9.75;37.94
69543;SHT31;56762;49.494;11.768;2023-04-06T13:46:04;9.75;38.30
69543;SHT31;56762;49.494;11.768;2023-04-06T13:48:32;9.79;39.80
69543;SHT31;56762;49.494;11.768;2023-04-06T13:51:09;9.92;37.26
69543;SHT31;56762;49.494;11.768;2023-04-06T13:53:37;9.89;38.44
69543;SHT31;56762;49.494;11.768;2023-04-06T13:56:08;9.85;36.21
69543;SHT31;56762;49.494;11.768;2023-04-06T13:58:36;9.85;37.03
69543;SHT31;56762;49.494;11.768;2023-04-06T14:01:06;9.79;36.59
69543;SHT31;56762;49.494;11.768;2023-04-06T14:03:34;9.87;38.23
69543;SHT31;56762;49.494;11.768;2023-04-06T14:06:11;9.98;37.69
69543;SHT31;56762;49.494;11.768;2023-04-06T14:08:42;10.02;36.34
69543;SHT31;56762;49.494;11.768;2023-04-06T14:11:11;10.03;36.19
69543;SHT31;56762;49.494;11.768;2023-04-06T14:13:41;10.08;35.90
69543;SHT31;56762;49.494;11.768;2023-04-06T14:16:10;9.94;35.79
69543;SHT31;56762;49.494;11.768;2023-04-06T14:18:39;9.95;36.24
69543;SHT31;56762;49.494;11.768;2023-04-06T14:21:07;9.89;39.49
69543;SHT31;56762;49.494;11.768;2023-04-06T14:23:37;9.91;38.61
69543;SHT31;56762;49.494;11.768;2023-04-06T14:26:07;9.94;39.09
69543;SHT31;56762;49.494;11.768;2023-04-06T14:28:35;9.95;38.65
69543;SHT31;56762;49.494;11.768;2023-04-06T14:31:09;10.05;39.39
69543;SHT31;56762;49.494;11.768;2023-04-06T14:33:38;10.08;37.96
69543;SHT31;56762;49.494;11.768;2023-04-06T14:36:08;10.09;39.02
69543;SHT31;56762;49.494;11.768;2023-04-06T14:38:38;10.03;37.44
69543;SHT31;56762;49.494;11.768;2023-04-06T14:41:08;10.05;38.00
69543;SHT31;56762;49.494;11.768;2023-04-06T14:43:36;10.02;38.02
69543;SHT31;56762;49.494;11.768;2023-04-06T14:46:04;9.91;35.61
69543;SHT31;56762;49.494;11.768;2023-04-06T14:48:32;9.79;36.07
69543;SHT31;56762;49.494;11.768;2023-04-06T14:51:00;9.75;36.21
69543;SHT31;56762;49.494;11.768;2023-04-06T14:53:28;9.70;36.06
69543;SHT31;56762;49.494;11.768;2023-04-06T14:55:57;9.61;36.31
69543;SHT31;56762;49.494;11.768;2023-04-06T14:58:25;9.57;36.77
69543;SHT31;56762;49.494;11.768;2023-04-06T15:00:55;9.58;36.92
69543;SHT31;56762;49.494;11.768;2023-04-06T15:03:24;9.64;37.83
69543;SHT31;56762;49.494;11.768;2023-04-06T15:05:53;9.64;37.69
69543;SHT31;56762;49.494;11.768;2023-04-06T15:08:22;9.57;37.51
69543;SHT31;56762;49.494;11.768;2023-04-06T15:10:51;9.64;38.28
69543;SHT31;56762;49.494;11.768;2023-04-06T15:13:22;9.58;38.75
69543;SHT31;56762;49.494;11.768;2023-04-06T15:15:50;9.50;38.43
69543;SHT31;56762;49.494;11.768;2023-04-06T15:18:19;9.46;36.82
69543;SHT31;56762;49.494;11.768;2023-04-06T15:20:48;9.47;37.52
69543;SHT31;56762;49.494;11.768;2023-04-06T15:23:17;9.47;37.19
69543;SHT31;56762;49.494;11.768;2023-04-06T15:25:45;9.44;37.91
69543;SHT31;56762;49.494;11.768;2023-04-06T15:28:14;9.37;37.67
69543;SHT31;56762;49.494;11.768;2023-04-06T15:30:43;9.41;36.89
69543;SHT31;56762;49.494;11.768;2023-04-06T15:33:11;9.40;37.93
69543;SHT31;56762;49.494;11.768;2023-04-06T15:35:40;9.37;37.92
69543;SHT31;56762;49.494;11.768;2023-04-06T15:38:09;9.37;36.93
69543;SHT31;56762;49.494;11.768;2023-04-06T15:40:42;9.36;36.44